Time;durP1;ratioP1;P1;durP2;ratioP2;P2;SDS_P1;SDS_P2;PMS_P1;PMS_P2;Temp;Humidity;BMP_temperature;BMP_pressure;BME280_temperature;BME280_humidity;BME280_pressure;Samples;Min_cycle;Max_cycle;Signal;HPM_P1;HPM_P2
2022/08/30 00:01:12;;;;;;;;;;;16.40;99.90;;;;;;5073384;28;19920;-80
2022/08/30 00:03:40;;;;;;;;;;;16.30;99.90;;;;;;5056098;28;20196;-80
2022/08/30 00:06:06;;;;;;;;;;;16.30;99.90;;;;;;5083657;28;20207;-79
2022/08/30 00:08:32;;;;;;;;;;;16.30;99.90;;;;;;5067919;28;19912;-79
2022/08/30 00:10:58;;;;;;;;;;;16.20;99.90;;;;;;5071248;28;19916;-79
2022/08/30 00:13:24;;;;;;;;;;;16.20;99.90;;;;;;5060575;28;19921;-80
2022/08/30 00:15:50;;;;;;;;;;;16.20;99.90;;;;;;5052849;28;19913;-84
2022/08/30 00:18:17;;;;;;;;;;;16.20;99.90;;;;;;5071420;28;19928;-82
2022/08/30 00:20:42;;;;;;;;;;;16.10;99.90;;;;;;5074279;28;19923;-79
2022/08/30 00:23:08;;;;;;;;;;;16.10;99.90;;;;;;5060089;28;19909;-83
2022/08/30 00:25:33;;;;;;;;;;;16.10;99.90;;;;;;5055748;28;20358;-83
2022/08/30 00:27:59;;;;;;;;;;;16.10;99.90;;;;;;5071944;28;20001;-83
2022/08/30 00:30:25;;;;;;;;;;;16.10;99.90;;;;;;5068834;28;20314;-82
2022/08/30 00:32:50;;;;;;;;;;;16.00;99.90;;;;;;5071572;28;19912;-82
2022/08/30 00:35:19;;;;;;;;;;;16.10;99.90;;;;;;5055176;28;20248;-83
2022/08/30 00:37:45;;;;;;;;;;;16.10;99.90;;;;;;5071191;28;19977;-82
2022/08/30 00:40:11;;;;;;;;;;;16.10;99.90;;;;;;5073033;28;19999;-80
2022/08/30 00:42:37;;;;;;;;;;;16.10;99.90;;;;;;5073557;28;20321;-80
2022/08/30 00:45:10;;;;;;;;;;;16.10;99.90;;;;;;5054828;28;19939;-80
2022/08/30 00:47:35;;;;;;;;;;;16.10;99.90;;;;;;5054748;28;19934;-80
2022/08/30 00:50:02;;;;;;;;;;;16.20;99.90;;;;;;5070151;28;20012;-81
2022/08/30 00:52:28;;;;;;;;;;;16.20;99.90;;;;;;5073242;28;20007;-80
2022/08/30 00:54:53;;;;;;;;;;;16.20;99.90;;;;;;5067857;28;20262;-80
2022/08/30 00:57:19;;;;;;;;;;;16.10;99.90;;;;;;5072630;28;19986;-86
2022/08/30 00:59:46;;;;;;;;;;;16.10;99.90;;;;;;5073433;28;19923;-82
2022/08/30 01:02:12;;;;;;;;;;;16.10;99.90;;;;;;5075114;28;19919;-81
2022/08/30 01:04:39;;;;;;;;;;;16.10;99.90;;;;;;5077561;28;19912;-79
2022/08/30 01:07:05;;;;;;;;;;;16.10;99.90;;;;;;5047460;28;19912;-82
2022/08/30 01:09:30;;;;;;;;;;;16.10;99.90;;;;;;5071387;28;19909;-80
2022/08/30 01:11:56;;;;;;;;;;;16.10;99.90;;;;;;5053884;28;19912;-79
2022/08/30 01:14:22;;;;;;;;;;;16.00;99.90;;;;;;5091065;28;19916;-83
2022/08/30 01:16:47;;;;;;;;;;;16.00;99.90;;;;;;5070927;28;19917;-81
2022/08/30 01:19:32;;;;;;;;;;;16.10;99.90;;;;;;5077725;28;19923;-82
2022/08/30 01:22:01;;;;;;;;;;;16.00;99.90;;;;;;5066909;28;19917;-82
2022/08/30 01:24:28;;;;;;;;;;;16.00;99.90;;;;;;5054525;28;19919;-79
2022/08/30 01:26:53;;;;;;;;;;;16.00;99.90;;;;;;5058652;28;19969;-80
2022/08/30 01:29:21;;;;;;;;;;;16.00;99.90;;;;;;5076144;28;19917;-80
2022/08/30 01:31:46;;;;;;;;;;;16.00;99.90;;;;;;5057259;28;19912;-82
2022/08/30 01:34:12;;;;;;;;;;;16.00;99.90;;;;;;5057769;28;19996;-79
2022/08/30 01:36:38;;;;;;;;;;;16.00;99.90;;;;;;5049119;28;19916;-80
2022/08/30 01:39:04;;;;;;;;;;;16.00;99.90;;;;;;5075773;28;20010;-80
2022/08/30 01:41:32;;;;;;;;;;;15.90;99.90;;;;;;5074233;28;20276;-81
2022/08/30 01:43:59;;;;;;;;;;;15.90;99.90;;;;;;5055023;28;19923;-80
2022/08/30 01:46:26;;;;;;;;;;;15.90;99.90;;;;;;5050969;28;19924;-80
2022/08/30 01:48:52;;;;;;;;;;;15.90;99.90;;;;;;5076218;28;20020;-81
2022/08/30 01:51:18;;;;;;;;;;;15.90;99.90;;;;;;5076400;28;19917;-79
2022/08/30 01:53:44;;;;;;;;;;;15.90;99.90;;;;;;5074285;28;19927;-80
2022/08/30 01:56:11;;;;;;;;;;;15.90;99.90;;;;;;5073520;28;19912;-79
2022/08/30 01:58:37;;;;;;;;;;;15.80;99.90;;;;;;5073369;28;19923;-79
2022/08/30 02:01:04;;;;;;;;;;;15.80;99.90;;;;;;5067724;28;19920;-79
2022/08/30 02:03:33;;;;;;;;;;;15.70;99.90;;;;;;5057946;28;19935;-80
2022/08/30 02:06:03;;;;;;;;;;;15.70;99.90;;;;;;5073931;28;20003;-80
2022/08/30 02:08:29;;;;;;;;;;;15.60;99.90;;;;;;5074892;28;19917;-80
2022/08/30 02:10:54;;;;;;;;;;;15.60;99.90;;;;;;5090505;28;19931;-79
2022/08/30 02:13:20;;;;;;;;;;;15.60;99.90;;;;;;5057258;28;19913;-79
2022/08/30 02:15:45;;;;;;;;;;;15.50;99.90;;;;;;5091519;28;20296;-79
2022/08/30 02:18:11;;;;;;;;;;;15.50;99.90;;;;;;5057563;28;19920;-79
2022/08/30 02:20:38;;;;;;;;;;;15.40;99.90;;;;;;5074979;28;19919;-80
2022/08/30 02:23:03;;;;;;;;;;;15.40;99.90;;;;;;5075850;28;20235;-79
2022/08/30 02:25:29;;;;;;;;;;;15.40;99.90;;;;;;5089723;28;19920;-80
2022/08/30 02:27:54;;;;;;;;;;;15.40;99.90;;;;;;5075713;28;19962;-79
2022/08/30 02:30:20;;;;;;;;;;;15.40;99.90;;;;;;5056296;28;20326;-79
2022/08/30 02:32:46;;;;;;;;;;;15.30;99.90;;;;;;5074166;28;20281;-79
2022/08/30 02:35:11;;;;;;;;;;;15.30;99.90;;;;;;5071812;28;19912;-79
2022/08/30 02:37:37;;;;;;;;;;;15.30;99.90;;;;;;5071056;28;19924;-80
2022/08/30 02:40:03;;;;;;;;;;;15.20;99.90;;;;;;5074666;28;19924;-79
2022/08/30 02:42:28;;;;;;;;;;;15.20;99.90;;;;;;5056080;28;20304;-79
2022/08/30 02:44:55;;;;;;;;;;;15.20;99.90;;;;;;5074027;28;19919;-79
2022/08/30 02:47:21;;;;;;;;;;;15.30;99.90;;;;;;5055687;28;19954;-80
2022/08/30 02:49:46;;;;;;;;;;;15.30;99.90;;;;;;5056269;28;19913;-79
2022/08/30 02:52:12;;;;;;;;;;;15.30;99.90;;;;;;5057507;28;20331;-80
2022/08/30 02:54:38;;;;;;;;;;;15.30;99.90;;;;;;5072814;28;20303;-79
2022/08/30 02:57:05;;;;;;;;;;;15.40;99.90;;;;;;5056532;28;19913;-80
2022/08/30 02:59:31;;;;;;;;;;;15.30;99.90;;;;;;5086299;28;19927;-80
2022/08/30 03:01:56;;;;;;;;;;;15.30;99.90;;;;;;5069160;28;20299;-80
2022/08/30 03:04:22;;;;;;;;;;;15.30;99.90;;;;;;5054436;28;19917;-80
2022/08/30 03:06:48;;;;;;;;;;;15.20;99.90;;;;;;5055607;28;19916;-80
2022/08/30 03:09:13;;;;;;;;;;;15.20;99.90;;;;;;5056421;28;19948;-80
2022/08/30 03:11:40;;;;;;;;;;;15.20;99.90;;;;;;5056477;28;19913;-79
2022/08/30 03:14:06;;;;;;;;;;;15.20;99.90;;;;;;5053991;28;20211;-81
2022/08/30 03:16:32;;;;;;;;;;;15.20;99.90;;;;;;5088538;28;19919;-81
2022/08/30 03:18:57;;;;;;;;;;;15.20;99.90;;;;;;5075478;28;19916;-80
2022/08/30 03:21:23;;;;;;;;;;;15.20;99.90;;;;;;5073461;28;19917;-81
2022/08/30 03:23:49;;;;;;;;;;;15.20;99.90;;;;;;5087915;28;19934;-79
2022/08/30 03:26:14;;;;;;;;;;;15.20;99.90;;;;;;5051070;28;19952;-79
2022/08/30 03:28:41;;;;;;;;;;;15.10;99.90;;;;;;5055838;28;19932;-80
2022/08/30 03:31:07;;;;;;;;;;;15.10;99.90;;;;;;5067268;28;19919;-79
2022/08/30 03:33:33;;;;;;;;;;;15.00;99.90;;;;;;5053176;28;20318;-78
2022/08/30 03:35:59;;;;;;;;;;;15.00;99.90;;;;;;5055738;28;19918;-79
2022/08/30 03:38:24;;;;;;;;;;;14.90;99.90;;;;;;5055512;28;19969;-79
2022/08/30 03:40:50;;;;;;;;;;;14.90;99.90;;;;;;5055817;28;19916;-78
2022/08/30 03:43:16;;;;;;;;;;;14.80;99.90;;;;;;5072854;28;19920;-78
2022/08/30 03:45:41;;;;;;;;;;;14.80;99.90;;;;;;5073300;28;19909;-79
2022/08/30 03:48:07;;;;;;;;;;;14.80;99.90;;;;;;5056017;28;20222;-78
2022/08/30 03:50:34;;;;;;;;;;;14.80;99.90;;;;;;5072709;28;19923;-79
2022/08/30 03:53:00;;;;;;;;;;;14.80;99.90;;;;;;5073544;28;19931;-80
2022/08/30 03:55:27;;;;;;;;;;;14.80;99.90;;;;;;5073902;28;20003;-78
2022/08/30 03:57:52;;;;;;;;;;;14.80;99.90;;;;;;5074086;28;19916;-78
2022/08/30 04:00:18;;;;;;;;;;;14.80;99.90;;;;;;5072729;28;20215;-78
2022/08/30 04:02:44;;;;;;;;;;;14.70;99.90;;;;;;5055113;28;19917;-79
2022/08/30 04:05:10;;;;;;;;;;;14.80;99.90;;;;;;5072675;28;19924;-79
2022/08/30 04:07:35;;;;;;;;;;;14.70;99.90;;;;;;5072698;28;19919;-78
2022/08/30 04:10:01;;;;;;;;;;;14.70;99.90;;;;;;5071835;28;19955;-78
2022/08/30 04:12:27;;;;;;;;;;;14.70;99.90;;;;;;5072307;28;20211;-78
2022/08/30 04:14:52;;;;;;;;;;;14.70;99.90;;;;;;5072271;28;19916;-78
2022/08/30 04:17:18;;;;;;;;;;;14.70;99.90;;;;;;5073419;28;19966;-79
2022/08/30 04:19:44;;;;;;;;;;;14.70;99.90;;;;;;5055400;28;20216;-78
2022/08/30 04:22:09;;;;;;;;;;;14.60;99.90;;;;;;5073149;28;20011;-79
2022/08/30 04:24:37;;;;;;;;;;;14.70;99.90;;;;;;5072692;28;19983;-78
2022/08/30 04:27:03;;;;;;;;;;;14.70;99.90;;;;;;5070551;28;19916;-79
2022/08/30 04:29:28;;;;;;;;;;;14.60;99.90;;;;;;5073628;28;19919;-78
2022/08/30 04:31:54;;;;;;;;;;;14.70;99.90;;;;;;5072445;28;19985;-78
2022/08/30 04:34:19;;;;;;;;;;;14.60;99.90;;;;;;5091257;28;20493;-78
2022/08/30 04:36:46;;;;;;;;;;;14.50;99.90;;;;;;5057808;28;20430;-78
2022/08/30 04:39:12;;;;;;;;;;;14.50;99.90;;;;;;5064379;28;19923;-78
2022/08/30 04:41:39;;;;;;;;;;;14.60;99.90;;;;;;5077226;28;19916;-77
2022/08/30 04:44:06;;;;;;;;;;;14.70;99.90;;;;;;5093420;28;19919;-77
2022/08/30 04:46:33;;;;;;;;;;;14.70;99.90;;;;;;5058822;28;19919;-77
2022/08/30 04:48:58;;;;;;;;;;;14.60;99.90;;;;;;5058055;28;19913;-78
2022/08/30 04:51:24;;;;;;;;;;;14.60;99.90;;;;;;5059638;28;19917;-78
2022/08/30 04:53:49;;;;;;;;;;;14.70;99.90;;;;;;5077348;28;20227;-78
2022/08/30 04:56:16;;;;;;;;;;;14.80;99.90;;;;;;5076550;28;19952;-78
2022/08/30 04:58:42;;;;;;;;;;;14.90;99.90;;;;;;5055106;28;19920;-78
2022/08/30 05:01:13;;;;;;;;;;;14.80;99.90;;;;;;5090609;28;19916;-78
2022/08/30 05:03:38;;;;;;;;;;;14.80;99.90;;;;;;5069900;28;19938;-79
2022/08/30 05:06:04;;;;;;;;;;;14.90;99.90;;;;;;5056144;28;19912;-77
2022/08/30 05:08:30;;;;;;;;;;;14.90;99.90;;;;;;5074453;28;19966;-78
2022/08/30 05:10:55;;;;;;;;;;;15.00;99.90;;;;;;5059919;28;19939;-77
2022/08/30 05:13:21;;;;;;;;;;;15.00;99.90;;;;;;5053619;28;19917;-79
2022/08/30 05:15:46;;;;;;;;;;;15.10;99.90;;;;;;5069590;28;19986;-78
2022/08/30 05:18:14;;;;;;;;;;;15.20;99.90;;;;;;5052121;28;20331;-82
2022/08/30 05:20:39;;;;;;;;;;;15.30;99.90;;;;;;5071739;28;19913;-78
2022/08/30 05:23:05;;;;;;;;;;;15.30;99.90;;;;;;5072818;28;19978;-79
2022/08/30 05:25:33;;;;;;;;;;;15.30;99.90;;;;;;5061425;28;19946;-78
2022/08/30 05:27:58;;;;;;;;;;;15.40;99.90;;;;;;5074751;28;19913;-78
2022/08/30 05:30:24;;;;;;;;;;;15.50;99.90;;;;;;5061627;28;19947;-80
2022/08/30 05:32:51;;;;;;;;;;;15.50;99.90;;;;;;5057434;28;19951;-78
2022/08/30 05:35:17;;;;;;;;;;;15.60;99.90;;;;;;5073984;28;20269;-78
2022/08/30 05:37:43;;;;;;;;;;;15.60;99.90;;;;;;5069475;28;19942;-78
2022/08/30 05:40:10;;;;;;;;;;;15.70;99.90;;;;;;5075076;28;19912;-78
2022/08/30 05:42:36;;;;;;;;;;;15.70;99.90;;;;;;5075740;28;20287;-77
2022/08/30 05:45:02;;;;;;;;;;;15.70;99.90;;;;;;5057669;28;19912;-78
2022/08/30 05:47:28;;;;;;;;;;;15.70;99.90;;;;;;5072347;28;20311;-78
2022/08/30 05:49:53;;;;;;;;;;;15.70;99.90;;;;;;5074279;28;19917;-81
2022/08/30 05:52:19;;;;;;;;;;;15.80;99.90;;;;;;5074438;28;19921;-81
2022/08/30 05:54:45;;;;;;;;;;;15.80;99.90;;;;;;5073804;28;19924;-81
2022/08/30 05:57:10;;;;;;;;;;;15.90;99.90;;;;;;5074665;28;19912;-79
2022/08/30 05:59:37;;;;;;;;;;;16.00;99.90;;;;;;5076245;28;19917;-81
2022/08/30 06:02:03;;;;;;;;;;;16.00;99.90;;;;;;5076483;28;19916;-79
2022/08/30 06:04:29;;;;;;;;;;;16.00;99.90;;;;;;5076270;28;19930;-79
2022/08/30 06:06:55;;;;;;;;;;;16.00;99.90;;;;;;5058953;28;20774;-81
2022/08/30 06:09:20;;;;;;;;;;;16.10;99.90;;;;;;5092607;28;20019;-80
2022/08/30 06:11:46;;;;;;;;;;;16.10;99.90;;;;;;5075704;28;19909;-81
2022/08/30 06:14:12;;;;;;;;;;;16.20;99.90;;;;;;5075526;28;19913;-80
2022/08/30 06:16:38;;;;;;;;;;;16.20;99.90;;;;;;5072287;28;20447;-77
2022/08/30 06:19:04;;;;;;;;;;;16.20;99.90;;;;;;5072714;28;19931;-78
2022/08/30 06:21:33;;;;;;;;;;;16.20;99.90;;;;;;5057691;28;20201;-80
2022/08/30 06:24:00;;;;;;;;;;;16.30;99.90;;;;;;5055554;28;19913;-82
2022/08/30 06:26:27;;;;;;;;;;;16.40;99.90;;;;;;5068209;28;20000;-79
2022/08/30 06:28:56;;;;;;;;;;;16.40;99.90;;;;;;5057699;28;19917;-83
2022/08/30 06:31:25;;;;;;;;;;;16.40;99.90;;;;;;5072911;28;20001;-78
2022/08/30 06:33:51;;;;;;;;;;;16.50;99.90;;;;;;5070811;28;19951;-80
2022/08/30 06:36:19;;;;;;;;;;;16.50;99.90;;;;;;5074772;28;19927;-75
2022/08/30 06:38:46;;;;;;;;;;;16.50;99.90;;;;;;5055954;28;19985;-82
2022/08/30 06:41:14;;;;;;;;;;;16.60;99.90;;;;;;5071583;28;19917;-82
2022/08/30 06:43:41;;;;;;;;;;;16.60;99.90;;;;;;5070671;28;19917;-80
2022/08/30 06:46:09;;;;;;;;;;;16.60;99.90;;;;;;5095280;28;19920;-81
2022/08/30 06:48:35;;;;;;;;;;;16.70;99.90;;;;;;5056881;28;19916;-79
2022/08/30 06:51:00;;;;;;;;;;;16.80;99.90;;;;;;5061294;28;20346;-79
2022/08/30 06:53:28;;;;;;;;;;;16.80;99.90;;;;;;5063116;28;20326;-79
2022/08/30 06:55:57;;;;;;;;;;;16.90;99.90;;;;;;5072839;28;20148;-75
2022/08/30 06:58:23;;;;;;;;;;;16.90;99.90;;;;;;5062807;28;19932;-78
2022/08/30 07:00:48;;;;;;;;;;;17.00;99.90;;;;;;5073786;28;19913;-79
2022/08/30 07:03:14;;;;;;;;;;;17.10;99.90;;;;;;5095334;28;20247;-79
2022/08/30 07:05:40;;;;;;;;;;;17.20;99.90;;;;;;5062927;28;19965;-75
2022/08/30 07:08:05;;;;;;;;;;;17.20;99.90;;;;;;5060891;28;20207;-75
2022/08/30 07:10:31;;;;;;;;;;;17.30;99.90;;;;;;5073179;28;19995;-79
2022/08/30 07:12:56;;;;;;;;;;;17.60;99.90;;;;;;5052760;28;19959;-79
2022/08/30 07:15:22;;;;;;;;;;;17.80;99.90;;;;;;5072074;28;19917;-75
2022/08/30 07:20:32;;;;;;;;;;;18.30;99.90;;;;;;5071248;28;20314;-77
2022/08/30 07:22:57;;;;;;;;;;;18.70;99.90;;;;;;5086983;28;19917;-78
2022/08/30 07:25:23;;;;;;;;;;;19.00;99.90;;;;;;5070592;28;20619;-78
2022/08/30 07:27:50;;;;;;;;;;;19.20;99.90;;;;;;5062804;28;19909;-78
2022/08/30 07:30:16;;;;;;;;;;;19.50;99.90;;;;;;5086793;28;19916;-78
2022/08/30 07:32:42;;;;;;;;;;;19.90;99.90;;;;;;5075168;28;19920;-76
2022/08/30 07:35:07;;;;;;;;;;;19.90;99.90;;;;;;5074373;28;19917;-78
2022/08/30 07:37:33;;;;;;;;;;;19.70;99.90;;;;;;5056941;28;20359;-78
2022/08/30 07:39:58;;;;;;;;;;;19.70;99.90;;;;;;5074807;28;19958;-78
2022/08/30 07:42:24;;;;;;;;;;;19.80;99.90;;;;;;5074575;28;20368;-81
2022/08/30 07:44:49;;;;;;;;;;;19.90;99.90;;;;;;5052967;28;19913;-75
2022/08/30 07:47:15;;;;;;;;;;;19.80;99.90;;;;;;5090246;28;19908;-78
2022/08/30 07:49:41;;;;;;;;;;;19.70;99.90;;;;;;5074933;28;19909;-80
2022/08/30 07:52:07;;;;;;;;;;;19.80;99.90;;;;;;5073730;28;19912;-77
2022/08/30 07:54:33;;;;;;;;;;;19.90;99.90;;;;;;5073630;28;20243;-79
2022/08/30 07:56:58;;;;;;;;;;;20.00;99.90;;;;;;5070212;28;19919;-77
2022/08/30 07:59:24;;;;;;;;;;;20.00;99.90;;;;;;5072072;28;19924;-78
2022/08/30 08:01:49;;;;;;;;;;;20.20;99.90;;;;;;5058438;28;19931;-75
2022/08/30 08:04:15;;;;;;;;;;;20.60;99.90;;;;;;5070561;28;19912;-78
2022/08/30 08:06:41;;;;;;;;;;;20.60;99.90;;;;;;5071084;28;19932;-81
2022/08/30 08:09:07;;;;;;;;;;;20.60;99.90;;;;;;5060089;28;19912;-80
2022/08/30 08:11:33;;;;;;;;;;;20.70;99.90;;;;;;5070708;28;20026;-78
2022/08/30 08:13:59;;;;;;;;;;;20.70;99.90;;;;;;5073080;28;19913;-77
2022/08/30 08:16:26;;;;;;;;;;;20.80;99.90;;;;;;5071628;28;20232;-78
2022/08/30 08:18:52;;;;;;;;;;;20.80;99.90;;;;;;5059202;28;20070;-78
2022/08/30 08:21:18;;;;;;;;;;;20.80;99.90;;;;;;5069284;28;20268;-77
2022/08/30 08:23:44;;;;;;;;;;;21.00;99.90;;;;;;5068820;28;19924;-79
2022/08/30 08:26:10;;;;;;;;;;;21.20;99.90;;;;;;5072812;28;19917;-79
2022/08/30 08:28:35;;;;;;;;;;;21.00;99.90;;;;;;5067730;28;20505;-78
2022/08/30 08:31:01;;;;;;;;;;;21.20;99.90;;;;;;5072746;28;20292;-78
2022/08/30 08:33:26;;;;;;;;;;;21.20;99.90;;;;;;5059323;28;19912;-78
2022/08/30 08:35:52;;;;;;;;;;;21.20;99.90;;;;;;5059445;28;20006;-78
2022/08/30 08:38:17;;;;;;;;;;;21.10;99.90;;;;;;5072922;28;20368;-79
2022/08/30 08:40:46;;;;;;;;;;;20.90;99.90;;;;;;5072567;28;19965;-78
2022/08/30 08:43:13;;;;;;;;;;;21.10;99.90;;;;;;5072495;28;19916;-77
2022/08/30 08:45:42;;;;;;;;;;;21.10;99.90;;;;;;5071311;28;19919;-78
2022/08/30 08:48:13;;;;;;;;;;;21.00;99.90;;;;;;5069826;28;19966;-77
2022/08/30 08:53:33;;;;;;;;;;;20.90;99.90;;;;;;5065330;28;19996;-76
2022/08/30 08:53:36;;;;;;;;;;;21.00;99.90;;;;;;5070050;28;19925;-78
2022/08/30 08:56:04;;;;;;;;;;;21.10;99.90;;;;;;5049287;28;19965;-76
2022/08/30 08:58:31;;;;;;;;;;;21.20;99.90;;;;;;5070322;28;19916;-78
2022/08/30 09:00:57;;;;;;;;;;;21.20;99.90;;;;;;5068680;28;19918;-78
2022/08/30 09:03:25;;;;;;;;;;;21.30;99.90;;;;;;5069804;28;19921;-78
2022/08/30 09:05:52;;;;;;;;;;;21.40;99.90;;;;;;5075443;28;20302;-75
2022/08/30 09:08:18;;;;;;;;;;;21.50;99.90;;;;;;5054382;28;20664;-76
2022/08/30 09:10:55;;;;;;;;;;;21.30;99.90;;;;;;5068730;28;20015;-77
2022/08/30 09:13:23;;;;;;;;;;;21.30;99.90;;;;;;5072830;28;19947;-78
2022/08/30 09:15:49;;;;;;;;;;;21.40;99.90;;;;;;5072803;28;19916;-81
2022/08/30 09:18:15;;;;;;;;;;;21.60;99.90;;;;;;5051007;28;19921;-79
2022/08/30 09:20:44;;;;;;;;;;;21.80;99.90;;;;;;5068330;28;19913;-75
2022/08/30 09:23:31;;;;;;;;;;;22.00;99.90;;;;;;5054722;28;19912;-77
2022/08/30 09:25:58;;;;;;;;;;;22.00;99.90;;;;;;5073647;28;19943;-76
2022/08/30 09:28:30;;;;;;;;;;;22.00;99.90;;;;;;5092665;28;19909;-78
2022/08/30 09:31:04;;;;;;;;;;;21.90;99.90;;;;;;5058697;28;19912;-78
2022/08/30 09:33:30;;;;;;;;;;;21.80;99.90;;;;;;5063475;28;19916;-76
2022/08/30 09:35:56;;;;;;;;;;;21.70;99.90;;;;;;5072682;28;20602;-79
2022/08/30 09:38:28;;;;;;;;;;;21.90;99.90;;;;;;5070680;28;20350;-79
2022/08/30 09:40:58;;;;;;;;;;;22.10;99.90;;;;;;5091551;28;19967;-76
2022/08/30 09:43:31;;;;;;;;;;;22.10;99.10;;;;;;5074527;28;19912;-78
2022/08/30 09:46:00;;;;;;;;;;;22.00;99.20;;;;;;5092992;28;20207;-80
2022/08/30 09:48:25;;;;;;;;;;;22.10;99.90;;;;;;5058991;28;19913;-79
2022/08/30 09:51:04;;;;;;;;;;;22.30;98.80;;;;;;5076413;28;20200;-79
2022/08/30 09:53:33;;;;;;;;;;;22.40;98.60;;;;;;5058004;28;19921;-76
2022/08/30 09:56:12;;;;;;;;;;;22.40;97.70;;;;;;5071707;28;19951;-80
2022/08/30 09:58:56;;;;;;;;;;;22.30;98.00;;;;;;5073440;28;21149;-78
2022/08/30 10:01:31;;;;;;;;;;;22.30;98.50;;;;;;5086134;28;19912;-77
2022/08/30 10:03:59;;;;;;;;;;;22.40;98.80;;;;;;5071037;28;19919;-78
2022/08/30 10:06:48;;;;;;;;;;;22.40;98.70;;;;;;5076499;28;19916;-76
2022/08/30 10:09:16;;;;;;;;;;;22.40;98.30;;;;;;5081736;28;20326;-76
2022/08/30 10:11:48;;;;;;;;;;;22.30;97.40;;;;;;5076149;28;19909;-79
2022/08/30 10:14:19;;;;;;;;;;;22.20;98.10;;;;;;5057342;28;19916;-75
2022/08/30 10:17:03;;;;;;;;;;;22.40;97.80;;;;;;5058101;28;20292;-76
2022/08/30 10:19:47;;;;;;;;;;;22.40;97.50;;;;;;5076503;28;19962;-79
2022/08/30 10:22:19;;;;;;;;;;;22.30;98.00;;;;;;5076637;28;19922;-78
2022/08/30 10:24:46;;;;;;;;;;;22.40;98.60;;;;;;5076420;28;19912;-75
2022/08/30 10:27:19;;;;;;;;;;;22.40;97.00;;;;;;5075562;28;20007;-77
2022/08/30 10:30:14;;;;;;;;;;;22.50;97.80;;;;;;5058466;28;20224;-78
2022/08/30 10:32:42;;;;;;;;;;;22.60;98.80;;;;;;5041842;28;20304;-80
2022/08/30 10:35:21;;;;;;;;;;;22.90;98.60;;;;;;5053780;28;20331;-75
2022/08/30 10:37:56;;;;;;;;;;;23.10;98.10;;;;;;5048622;28;19912;-76
2022/08/30 10:43:23;;;;;;;;;;;23.20;98.20;;;;;;5054156;28;19923;-78
2022/08/30 10:45:50;;;;;;;;;;;23.40;98.20;;;;;;5053628;28;19958;-80
2022/08/30 10:48:25;;;;;;;;;;;23.20;97.00;;;;;;5053402;28;19909;-78
2022/08/30 10:50:53;;;;;;;;;;;23.20;96.00;;;;;;5053313;28;19912;-78
2022/08/30 10:53:24;;;;;;;;;;;23.20;97.20;;;;;;5036575;28;19924;-78
2022/08/30 10:55:52;;;;;;;;;;;23.30;97.30;;;;;;5036722;28;19916;-76
2022/08/30 10:58:18;;;;;;;;;;;23.30;97.80;;;;;;5025242;28;19921;-78
2022/08/30 11:01:02;;;;;;;;;;;23.50;97.50;;;;;;5042765;28;19909;-80
2022/08/30 11:03:30;;;;;;;;;;;23.50;96.50;;;;;;5043282;28;19920;-79
2022/08/30 11:05:55;;;;;;;;;;;23.50;97.40;;;;;;5052775;28;19909;-81
2022/08/30 11:08:27;;;;;;;;;;;23.50;96.10;;;;;;5035556;28;19973;-78
2022/08/30 11:10:53;;;;;;;;;;;23.70;96.30;;;;;;5046944;28;19912;-77
2022/08/30 11:13:23;;;;;;;;;;;23.60;96.40;;;;;;5072343;28;19915;-81
2022/08/30 11:15:57;;;;;;;;;;;23.40;96.60;;;;;;5055070;28;20269;-78
2022/08/30 11:18:23;;;;;;;;;;;23.40;96.00;;;;;;5042682;28;19978;-80
2022/08/30 11:20:52;;;;;;;;;;;23.50;96.40;;;;;;5033106;28;19986;-77
2022/08/30 11:23:17;;;;;;;;;;;23.60;96.60;;;;;;5025738;28;19917;-77
2022/08/30 11:25:49;;;;;;;;;;;23.70;95.90;;;;;;5064678;28;20323;-75
2022/08/30 11:28:33;;;;;;;;;;;23.60;94.60;;;;;;5030704;28;19921;-77
2022/08/30 11:31:03;;;;;;;;;;;23.40;95.80;;;;;;5031195;28;19920;-80
2022/08/30 11:33:39;;;;;;;;;;;23.50;95.80;;;;;;5031674;28;20028;-75
2022/08/30 11:36:05;;;;;;;;;;;23.40;95.70;;;;;;5032525;28;19921;-75
2022/08/30 11:38:31;;;;;;;;;;;23.30;95.30;;;;;;5030313;28;20334;-73
2022/08/30 11:40:59;;;;;;;;;;;23.30;94.90;;;;;;5031905;28;20066;-76
2022/08/30 11:43:34;;;;;;;;;;;23.30;96.30;;;;;;5030785;28;20312;-79
2022/08/30 11:46:18;;;;;;;;;;;23.30;96.00;;;;;;5062437;28;19913;-81
2022/08/30 11:48:48;;;;;;;;;;;23.40;95.30;;;;;;5031927;28;19913;-82
2022/08/30 11:51:33;;;;;;;;;;;23.50;96.20;;;;;;5031269;28;19913;-78
2022/08/30 11:54:17;;;;;;;;;;;23.70;95.90;;;;;;5054825;28;19948;-79
2022/08/30 11:56:46;;;;;;;;;;;23.80;95.20;;;;;;5061902;28;19923;-84
2022/08/30 11:59:30;;;;;;;;;;;23.90;95.70;;;;;;5060780;28;19929;-78
2022/08/30 12:01:56;;;;;;;;;;;23.90;95.60;;;;;;5059695;28;19913;-77
2022/08/30 12:04:36;;;;;;;;;;;23.90;96.20;;;;;;5062021;28;19920;-75
2022/08/30 12:07:06;;;;;;;;;;;23.80;96.50;;;;;;5061644;28;19921;-75
2022/08/30 12:09:35;;;;;;;;;;;23.80;96.10;;;;;;5063729;28;19926;-76
2022/08/30 12:12:08;;;;;;;;;;;24.00;96.90;;;;;;5057638;28;19913;-80
2022/08/30 12:14:54;;;;;;;;;;;23.90;96.80;;;;;;5061654;28;19913;-80
2022/08/30 12:20:16;;;;;;;;;;;23.90;96.70;;;;;;5060359;28;19966;-75
2022/08/30 12:22:42;;;;;;;;;;;23.60;97.50;;;;;;5059997;28;19943;-82
2022/08/30 12:25:20;;;;;;;;;;;23.50;97.50;;;;;;5058168;28;19959;-80
2022/08/30 12:27:46;;;;;;;;;;;23.50;97.20;;;;;;5056464;28;20566;-75
2022/08/30 12:30:12;;;;;;;;;;;23.30;96.80;;;;;;5052354;28;19913;-76
2022/08/30 12:32:46;;;;;;;;;;;23.20;97.40;;;;;;5049819;28;19924;-76
2022/08/30 12:35:21;;;;;;;;;;;23.10;97.40;;;;;;5047283;28;20273;-74
2022/08/30 12:37:54;;;;;;;;;;;23.10;97.60;;;;;;5049423;28;19913;-76
2022/08/30 12:40:21;;;;;;;;;;;23.30;97.90;;;;;;5052334;28;21632;-79
2022/08/30 12:42:52;;;;;;;;;;;23.30;97.40;;;;;;5052967;28;19943;-76
2022/08/30 12:45:19;;;;;;;;;;;23.20;97.30;;;;;;5055622;28;19992;-74
2022/08/30 12:47:48;;;;;;;;;;;22.90;97.80;;;;;;5054955;28;20013;-77
2022/08/30 12:50:18;;;;;;;;;;;22.90;97.20;;;;;;5056608;28;19981;-77
2022/08/30 12:52:55;;;;;;;;;;;22.80;98.40;;;;;;5062825;28;20019;-79
2022/08/30 12:55:22;;;;;;;;;;;23.00;97.50;;;;;;5072111;28;20303;-74
2022/08/30 12:57:53;;;;;;;;;;;22.80;97.60;;;;;;5075108;28;19939;-83
2022/08/30 13:00:39;;;;;;;;;;;22.70;97.20;;;;;;5074820;28;19913;-78
2022/08/30 13:03:23;;;;;;;;;;;22.80;97.90;;;;;;5074645;28;20365;-75
2022/08/30 13:05:50;;;;;;;;;;;22.70;97.50;;;;;;5076252;28;19912;-77
2022/08/30 13:08:20;;;;;;;;;;;22.50;97.70;;;;;;5074516;28;20329;-78
2022/08/30 13:10:50;;;;;;;;;;;22.40;98.00;;;;;;5064442;28;19921;-74
2022/08/30 13:13:25;;;;;;;;;;;22.40;98.10;;;;;;5075907;28;19913;-78
2022/08/30 13:15:51;;;;;;;;;;;22.40;97.70;;;;;;5074795;28;19955;-77
2022/08/30 13:18:18;;;;;;;;;;;22.50;97.90;;;;;;5057017;28;20345;-80
2022/08/30 13:20:47;;;;;;;;;;;22.50;97.90;;;;;;5074307;28;19916;-80
2022/08/30 13:23:21;;;;;;;;;;;22.50;97.40;;;;;;5070839;28;19928;-76
2022/08/30 13:25:46;;;;;;;;;;;22.50;97.70;;;;;;5074870;28;19935;-76
2022/08/30 13:28:12;;;;;;;;;;;22.60;97.10;;;;;;5075183;28;20311;-77
2022/08/30 13:30:37;;;;;;;;;;;22.70;97.10;;;;;;5061724;28;19923;-78
2022/08/30 13:33:03;;;;;;;;;;;22.60;97.50;;;;;;5065158;28;19920;-76
2022/08/30 13:35:29;;;;;;;;;;;22.60;97.40;;;;;;5065313;28;19919;-79
2022/08/30 13:37:56;;;;;;;;;;;22.50;97.10;;;;;;5065100;28;20311;-75
2022/08/30 13:40:22;;;;;;;;;;;22.50;96.90;;;;;;5075240;28;20283;-73
2022/08/30 13:42:48;;;;;;;;;;;22.30;97.20;;;;;;5073998;28;20015;-78
2022/08/30 13:45:18;;;;;;;;;;;22.30;98.10;;;;;;5061063;28;19927;-76
2022/08/30 13:47:45;;;;;;;;;;;22.40;97.90;;;;;;5060199;28;19924;-74
2022/08/30 13:50:11;;;;;;;;;;;22.40;97.30;;;;;;5065470;28;20197;-79
2022/08/30 13:52:36;;;;;;;;;;;22.40;97.60;;;;;;5062029;28;19939;-74
2022/08/30 13:55:02;;;;;;;;;;;22.40;97.30;;;;;;5074493;28;19923;-83
2022/08/30 13:57:28;;;;;;;;;;;22.30;98.10;;;;;;5064146;28;19924;-75
2022/08/30 13:59:54;;;;;;;;;;;22.10;97.90;;;;;;5063462;28;19920;-74
2022/08/30 14:02:20;;;;;;;;;;;22.00;97.80;;;;;;5072877;28;19912;-78
2022/08/30 14:04:45;;;;;;;;;;;22.00;97.50;;;;;;5075307;28;20050;-78
2022/08/30 14:07:11;;;;;;;;;;;22.10;97.10;;;;;;5071127;28;19920;-76
2022/08/30 14:09:36;;;;;;;;;;;22.20;97.20;;;;;;5053831;28;19912;-76
2022/08/30 14:12:02;;;;;;;;;;;22.30;97.20;;;;;;5058663;28;20436;-74
2022/08/30 14:14:28;;;;;;;;;;;22.20;97.20;;;;;;5065809;28;20000;-84
2022/08/30 14:16:53;;;;;;;;;;;22.40;98.90;;;;;;5063459;28;19939;-75
2022/08/30 14:19:19;;;;;;;;;;;22.30;96.50;;;;;;5066289;28;19966;-76
2022/08/30 14:21:44;;;;;;;;;;;22.40;97.00;;;;;;5074938;28;19913;-75
2022/08/30 14:24:10;;;;;;;;;;;22.40;96.90;;;;;;5062160;28;19915;-77
2022/08/30 14:26:42;;;;;;;;;;;22.40;97.10;;;;;;5070523;28;19919;-76
2022/08/30 14:29:09;;;;;;;;;;;22.30;96.10;;;;;;5069929;28;19916;-76